Main page


Airports :

Bamako, Mali

Bamako–Modibo Keïta International Airport

latitude: 12-32N, longitude: 007-57W, elevation: 380 m

Current weather observation

The report was made 44 minutes ago, at 21:00 UTC
Wind 6 kt from the East/Northeast
Temperature 29°C
Humidity 14%
Pressure 1013 hPa
Visibility: 8000 m

METAR: GABS 222100Z 06006KT 8000 NSC 29/M01 Q1013 NOSIG

Time: 21:44 (21:44 UTC)


The report was made 4 hours and 44 minutes ago, at 17:00 UTC
Forecast valid from 22 at 18 UTC to 23 at 24 UTC
Wind 15 kt from the North with gusts up to 25 kt
Visibility: 6000 m
from 22 at 19 UTC to 22 at 21 UTC
Visibility: 2000 m
widespread dust
from 23 at 06 UTC to 23 at 18 UTC
Visibility: 1000 m

TAF: GABS 221700Z 2218/2324 36015G25KT 6000 NSC BECMG 2219/2221 2000 DU TEMPO 2306/2318 1000

Weather observations and forecasts of more than 4000 airports (METAR and TAF reports).

The available stations are represented by yellow and red dots on the map.

Hover mouse over dot to see the name of the station.

Then click to see weather observations and forecasts.

To change the map : click on the green buttons with a black cross to zoom in, on the green button with a dash to zoom out, or on the green arrows for adjacent maps.